Detalii statie VALKAPA [00001D0A]

Toti senzorii

Date Temperatura solului [C]Precipitatii [mm]Voltaj baterie [mV]Leaf Wetness [Min]HC Air temperature [C]HC Relative humidity [%]Punctul de roua [C]
medieminmaxsumaultimatimpmedieminmaxmediemediemin
2017-08-14 20:00:00 0 6922 22.03 20.59 23.52 60.63 13.8 13.4
2017-08-14 21:00:00 0 6904 20.04 19.35 20.68 68.69 13.9 13.6
2017-08-14 22:00:00 0 6894 19.03 18.87 19.25 72.51 13.8 13.4
2017-08-14 23:00:00 0 6884 18.52 17.91 18.93 73.8 13.6 13.5
2017-08-15 00:00:00 0 6884 17.64 17.34 18.09 76.94 13.4 13.3
2017-08-15 01:00:00 0 6874 17.02 16.58 17.45 78.67 13.1 11.2
2017-08-15 02:00:00 0 6864 16.43 16.34 16.57 82.73 13.3 13.2
2017-08-15 03:00:00 0 6844 16.01 15.49 16.29 83.65 13.1 12.9
2017-08-15 04:00:00 0 6834 15.33 15.2 15.49 87.5 13.1 13.1
2017-08-15 05:00:00 0 6826 14.89 14.72 15.15 89.73 13.1 13
2017-08-15 06:00:00 0 6816 14.59 14.47 14.85 91.72 13.1 13
2017-08-15 07:00:00 0 6864 15.7 14.88 16.84 86.8 13.3 13.2
2017-08-15 08:00:00 0 6992 18.07 16.96 19.7 77.57 13.9 13.4
2017-08-15 09:00:00 0 7098 20.92 19.61 22.16 68.56 14.7 14.2
2017-08-15 10:00:00 0 7186 23.63 22.81 24.57 56.94 14.3 13.2
2017-08-15 11:00:00 0 7236 24.97 24.46 25.71 49.54 13.5 13.1
2017-08-15 12:00:00 0 7236 26.2 25.56 27.1 46.02 13.5 12.6
2017-08-15 13:00:00 0 7226 27.35 26.31 28.35 44.29 13.8 13
2017-08-15 14:00:00 0 7226 28.12 27.45 29.05 43.33 14.2 12.7
2017-08-15 15:00:00 0 7226 28.44 27.93 28.95 42.59 14.2 13.8
2017-08-15 16:00:00 0 7226 28.52 27.94 29.26 42.66 14.4 13.8
2017-08-15 17:00:00 0 7226 27.93 27.09 28.65 42.88 13.9 13.4
2017-08-15 18:00:00 0 7226 27.25 26.94 27.54 44.23 13.7 13.5
2017-08-15 19:00:00 0 7216 26.04 25.24 26.89 50.09 14.6 13.9
2017-08-15 20:00:00 0 6914 23.39 22 25.04 65.65 16.4 15.9
2017-08-15 21:00:00 0 6904 20.01 18.96 21.96 85.68 17.3 16.2
2017-08-15 22:00:00 0 6884 18.79 18.16 19.14 89.4 16.8 16.6
2017-08-15 23:00:00 0 6884 17.28 16.87 17.98 98.08 16.8 16.6
2017-08-16 00:00:00 0 6874 16.76 16.42 17.27 98.35 16.3 16.2
2017-08-16 01:00:00 0 6864 16.27 15.97 16.52 98.08 15.8 15.7
2017-08-16 02:00:00 0 6854 15.69 15.45 15.86 99.99 15.6 15.4
2017-08-16 03:00:00 0 6844 14.97 14.66 15.38 100 14.9 14.6
2017-08-16 04:00:00 0 6834 14.47 13.82 15.17 100 14.4 13.8
2017-08-16 05:00:00 0 6816 14.48 13.67 15.33 100 14.4 13.6
2017-08-16 06:00:00 0 6816 14.52 14.14 15.29 100 14.4 14.1
2017-08-16 07:00:00 0 6864 15.87 14.79 16.9 99.09 15.6 14.7
2017-08-16 08:00:00 0 6982 18.64 17.16 20.23 90.34 16.8 16.1
2017-08-16 09:00:00 0 7060 21.82 20.58 23.26 78.31 17.7 17.3
2017-08-16 10:00:00 0 7158 24.3 22.86 25.7 67.3 17.6 17.4
2017-08-16 11:00:00 0 7236 26.32 25.71 27.15 57.6 17.1 16.7
2017-08-16 12:00:00 0 7236 28.02 27.16 29.27 51.14 16.7 16
2017-08-16 13:00:00 0 7236 28.73 27.89 29.41 47.56 16.2 15.9
2017-08-16 14:00:00 0 7226 29.8 28.85 30.44 43.31 15.7 14.5
2017-08-16 15:00:00 0 7226 30.11 29.49 30.77 39.49 14.5 13.5
2017-08-16 16:00:00 0 7226 30.44 29.63 30.95 34.65 12.9 11.6
2017-08-16 17:00:00 0 7226 29.77 29.23 30.51 36.49 13 12.1
2017-08-16 18:00:00 0 7226 29.02 28.45 29.47 37.65 12.8 12.2
2017-08-16 19:00:00 0 7216 27.43 26.26 28.32 42.75 13.4 13